• Join FlightAware (Why Join?)
  • Login
  • US Flag 
05:06AM EST


 

Airport Tracker/Info


-or-


 

Live Flight TrackerFlight Track Log ✈ HPK1813 ✈ 16-May-2013 ✈ 5B2 - KFRG

Flight Track Log - Related Links

Times and Time Zones

All times are in EDT time to prevent confusion due to time zone crossing. See the HPK1813 flight status page for this flight to view local times or setup timezone preferences in your user account.

Time Position Orientation Groundspeed Altitude Reporting Facility
EDT Latitude Longitude Course Direction KTS MPH feet Rate Location/Type
09:45PM 42.9436 -73.8725 169° South 164 189 3,600  Level Boston Center
09:46PM 42.8958 -73.8600 169° South 171 197 4,300 420 Climbing Boston Center
09:47PM 42.8522 -73.8561 176° South 173 199 4,500 60 Climbing Boston Center
09:48PM 42.8044 -73.8436 169° South 185 213 4,500  Level Boston Center
09:49PM 42.7525 -73.8311 170° South 188 216 4,500  Level Boston Center
09:50PM 42.6858 -73.8183 172° South 186 214 4,500  Level Boston Center
09:51PM 42.6339 -73.8061 170° South 184 212 4,500  Level Boston Center
09:52PM 42.5861 -73.7964 171° South 184 212 4,500  Level Boston Center
09:54PM 42.5379 -73.8000 180° South  Level FlightAware Approximate
10:01PM 42.2315 -73.7993 163° South  Level FlightAware Approximate
10:02PM 42.1895 -73.7824 163° South  Level FlightAware Approximate
10:03PM 42.1475 -73.7655 161° South  Level FlightAware Approximate
10:04PM 42.1061 -73.7464 161° South  Level FlightAware Approximate
10:05PM 42.0647 -73.7272 161° South  Level FlightAware Approximate
10:06PM 42.0233 -73.7081 161° South  Level FlightAware Approximate
10:07PM 41.9818 -73.6890 161° South  Level FlightAware Approximate
10:08PM 41.9404 -73.6699 161° South  Level FlightAware Approximate
10:09PM 41.8985 -73.6527 163° South  Level FlightAware Approximate
10:10PM 41.8566 -73.6359 163° South  Level FlightAware Approximate
10:11PM 41.8146 -73.6191 163° South  Level FlightAware Approximate
10:12PM 41.7726 -73.6024 163° South  Level FlightAware Approximate
10:13PM 41.7315 -73.5824 160° South  Level FlightAware Approximate
10:14PM 41.6904 -73.5619 160° South  Level FlightAware Approximate
10:15PM 41.6494 -73.5414 160° South  Level FlightAware Approximate
10:16PM 41.6084 -73.5209 159° South  Level FlightAware Approximate
10:17PM 41.5674 -73.5003 159° South  Level FlightAware Approximate
10:18PM 41.5274 -73.4774 143° Southeast  Level FlightAware Approximate
10:19PM 41.4923 -73.4423 143° Southeast  Level FlightAware Approximate
10:20PM 41.4573 -73.4073 143° Southeast  Level FlightAware Approximate
10:21PM 41.4223 -73.3722 143° Southeast  Level FlightAware Approximate
10:22PM 41.3872 -73.3371 143° Southeast  Level FlightAware Approximate
10:23PM 41.3522 -73.3021 143° Southeast  Level FlightAware Approximate
10:24PM 41.3172 -73.2672 143° Southeast  Level FlightAware Approximate
10:25PM 41.2801 -73.2361 148° Southeast  Level FlightAware Approximate
10:26PM 41.2430 -73.2052 148° Southeast  Level FlightAware Approximate
10:27PM 41.2065 -73.1731 143° Southeast  Level FlightAware Approximate
10:28PM 41.1715 -73.1381 143° Southeast  Level FlightAware Approximate
10:29PM 41.1395 -73.0991 129° Southeast  Level FlightAware Approximate
10:30PM 41.1122 -73.0536 129° Southeast  Level FlightAware Approximate
10:31PM 41.0806 -73.0140 143° Southeast  Level FlightAware Approximate
10:32PM 41.0470 -72.9893 236° Southwest  Level FlightAware Approximate
10:33PM 41.0181 -73.0319 217° Southwest  Level FlightAware Approximate
10:34PM 40.9832 -73.0669 217° Southwest  Level FlightAware Approximate
10:35PM 40.9482 -73.1018 217° Southwest  Level FlightAware Approximate
10:36PM 40.9237 -73.1440 220° Southwest  Level FlightAware Approximate
10:37PM 40.8902 -73.1813 220° Southwest  Level FlightAware Approximate
10:38PM 40.8567 -73.2186 220° Southwest  Level FlightAware Approximate
10:39PM 40.8232 -73.2558 220° Southwest  Level FlightAware Approximate
10:40PM 40.7896 -73.2930 220° Southwest  Level FlightAware Approximate
10:41PM 40.7586 -73.3328 237° Southwest  Level FlightAware Approximate
10:42PM 40.7314 -73.3779 229° Southwest  Level FlightAware Approximate
10:43PM 40.7167 -73.4000 229° Southwest  Level FlightAware Approximate
10:44PM 40.7288 -73.4134 229° Southwest  Level Estimated
10:45PM 40.7288 -73.4134 229° Southwest  Level Estimated
10:46PM 40.7288 -73.4134 229° Southwest  Level Estimated
10:47PM 40.7288 -73.4134 229° Southwest  Level Estimated
10:48PM 40.7288 -73.4134 229° Southwest  Level Estimated
10:49PM 40.7288 -73.4134 229° Southwest  Level Estimated
10:50PM 40.7288 -73.4134 229° Southwest  Level Estimated
10:51PM 40.7288 -73.4134 229° Southwest  Level Estimated
10:52PM 40.7288 -73.4134 229° Southwest  Level Estimated
10:53PM 40.7288 -73.4134 229° Southwest  Level Estimated
10:54PM 40.7288 -73.4134 229° Southwest  Level Estimated
10:55PM 40.7288 -73.4134 229° Southwest  Level Estimated
10:56PM 40.7288 -73.4134 229° Southwest  Level Estimated
10:57PM 40.7288 -73.4134 229° Southwest  Level Estimated
10:58PM 40.7288 -73.4134 229° Southwest  Level Estimated
10:59PM 40.7288 -73.4134 229° Southwest  Level Estimated
11:00PM 40.7288 -73.4134 229° Southwest  Level Estimated
11:01PM 40.7288 -73.4134 229° Southwest  Level Estimated
11:02PM 40.7288 -73.4134 229° Southwest  Level Estimated